sensor_id;sensor_type;location;lat;lon;timestamp;temperature;humidity
46331;DHT22;32049;52.346;4.870;2022-08-21T00:05:57;18.20;99.90
46331;DHT22;32049;52.346;4.870;2022-08-21T00:09:09;18.20;99.90
46331;DHT22;32049;52.346;4.870;2022-08-21T00:18:55;18.10;99.90
46331;DHT22;32049;52.346;4.870;2022-08-21T00:22:21;18.00;99.90
46331;DHT22;32049;52.346;4.870;2022-08-21T00:25:18;18.00;99.90
46331;DHT22;32049;52.346;4.870;2022-08-21T00:28:11;18.00;99.90
46331;DHT22;32049;52.346;4.870;2022-08-21T00:34:34;18.00;99.90
46331;DHT22;32049;52.346;4.870;2022-08-21T00:37:23;17.90;99.90
46331;DHT22;32049;52.346;4.870;2022-08-21T00:40:15;17.90;99.90
46331;DHT22;32049;52.346;4.870;2022-08-21T00:43:05;17.90;99.90
46331;DHT22;32049;52.346;4.870;2022-08-21T00:45:53;17.90;99.90
46331;DHT22;32049;52.346;4.870;2022-08-21T00:48:41;17.80;99.90
46331;DHT22;32049;52.346;4.870;2022-08-21T00:51:43;17.80;99.90
46331;DHT22;32049;52.346;4.870;2022-08-21T00:54:43;17.80;99.90
46331;DHT22;32049;52.346;4.870;2022-08-21T00:57:55;17.80;99.90
46331;DHT22;32049;52.346;4.870;2022-08-21T01:00:47;17.90;99.90
46331;DHT22;32049;52.346;4.870;2022-08-21T01:04:27;17.90;99.90
46331;DHT22;32049;52.346;4.870;2022-08-21T01:10:59;17.60;99.90
46331;DHT22;32049;52.346;4.870;2022-08-21T01:26:09;17.60;99.90
46331;DHT22;32049;52.346;4.870;2022-08-21T01:29:05;17.60;99.90
46331;DHT22;32049;52.346;4.870;2022-08-21T01:31:54;17.50;99.90
46331;DHT22;32049;52.346;4.870;2022-08-21T01:34:43;17.50;99.90
46331;DHT22;32049;52.346;4.870;2022-08-21T01:37:32;17.50;99.90
46331;DHT22;32049;52.346;4.870;2022-08-21T01:40:19;17.50;99.90
46331;DHT22;32049;52.346;4.870;2022-08-21T01:44:05;17.50;99.90
46331;DHT22;32049;52.346;4.870;2022-08-21T01:47:19;17.50;99.90
46331;DHT22;32049;52.346;4.870;2022-08-21T01:50:20;17.50;99.90
46331;DHT22;32049;52.346;4.870;2022-08-21T01:53:23;17.50;99.90
46331;DHT22;32049;52.346;4.870;2022-08-21T01:56:27;17.50;99.90
46331;DHT22;32049;52.346;4.870;2022-08-21T01:59:36;17.60;99.90
46331;DHT22;32049;52.346;4.870;2022-08-21T02:02:29;17.50;99.90
46331;DHT22;32049;52.346;4.870;2022-08-21T02:05:35;17.50;99.90
46331;DHT22;32049;52.346;4.870;2022-08-21T02:08:38;17.50;99.90
46331;DHT22;32049;52.346;4.870;2022-08-21T02:11:38;17.40;99.90
46331;DHT22;32049;52.346;4.870;2022-08-21T02:18:53;17.50;99.90
46331;DHT22;32049;52.346;4.870;2022-08-21T02:21:41;17.50;99.90
46331;DHT22;32049;52.346;4.870;2022-08-21T02:24:36;17.40;99.90
46331;DHT22;32049;52.346;4.870;2022-08-21T02:27:43;17.50;99.90
46331;DHT22;32049;52.346;4.870;2022-08-21T02:31:07;17.60;99.90
46331;DHT22;32049;52.346;4.870;2022-08-21T02:34:24;17.40;99.90
46331;DHT22;32049;52.346;4.870;2022-08-21T02:37:54;17.40;99.90
46331;DHT22;32049;52.346;4.870;2022-08-21T02:41:50;17.50;99.90
46331;DHT22;32049;52.346;4.870;2022-08-21T02:44:48;17.50;99.90
46331;DHT22;32049;52.346;4.870;2022-08-21T02:48:17;17.40;99.90
46331;DHT22;32049;52.346;4.870;2022-08-21T02:51:25;17.40;99.90
46331;DHT22;32049;52.346;4.870;2022-08-21T02:54:17;17.30;99.90
46331;DHT22;32049;52.346;4.870;2022-08-21T02:57:21;17.20;99.90
46331;DHT22;32049;52.346;4.870;2022-08-21T03:00:18;17.40;99.90
46331;DHT22;32049;52.346;4.870;2022-08-21T03:03:39;17.30;99.90
46331;DHT22;32049;52.346;4.870;2022-08-21T03:06:49;18.20;99.90
46331;DHT22;32049;52.346;4.870;2022-08-21T03:10:21;18.60;99.90
46331;DHT22;32049;52.346;4.870;2022-08-21T03:13:33;18.40;99.90
46331;DHT22;32049;52.346;4.870;2022-08-21T03:17:18;18.40;99.90
46331;DHT22;32049;52.346;4.870;2022-08-21T03:20:28;18.20;99.90
46331;DHT22;32049;52.346;4.870;2022-08-21T03:23:45;17.90;99.90
46331;DHT22;32049;52.346;4.870;2022-08-21T03:30:19;17.90;99.90
46331;DHT22;32049;52.346;4.870;2022-08-21T03:34:19;18.00;99.90
46331;DHT22;32049;52.346;4.870;2022-08-21T03:38:05;18.20;99.90
46331;DHT22;32049;52.346;4.870;2022-08-21T03:44:39;18.00;99.90
46331;DHT22;32049;52.346;4.870;2022-08-21T03:47:27;18.00;99.90
46331;DHT22;32049;52.346;4.870;2022-08-21T03:50:15;18.20;99.90
46331;DHT22;32049;52.346;4.870;2022-08-21T03:53:11;18.40;99.90
46331;DHT22;32049;52.346;4.870;2022-08-21T03:56:04;18.40;99.90
46331;DHT22;32049;52.346;4.870;2022-08-21T03:59:04;18.20;99.90
46331;DHT22;32049;52.346;4.870;2022-08-21T04:02:10;18.20;99.90
46331;DHT22;32049;52.346;4.870;2022-08-21T04:05:08;17.80;99.90
46331;DHT22;32049;52.346;4.870;2022-08-21T04:08:05;18.00;99.90
46331;DHT22;32049;52.346;4.870;2022-08-21T04:14:56;18.20;99.90
46331;DHT22;32049;52.346;4.870;2022-08-21T04:18:23;18.00;99.90
46331;DHT22;32049;52.346;4.870;2022-08-21T04:21:41;17.80;99.90
46331;DHT22;32049;52.346;4.870;2022-08-21T04:25:12;18.40;99.90
46331;DHT22;32049;52.346;4.870;2022-08-21T04:28:24;18.00;99.90
46331;DHT22;32049;52.346;4.870;2022-08-21T04:31:36;17.80;99.90
46331;DHT22;32049;52.346;4.870;2022-08-21T04:34:29;17.60;99.90
46331;DHT22;32049;52.346;4.870;2022-08-21T04:37:33;18.10;99.90
46331;DHT22;32049;52.346;4.870;2022-08-21T04:40:29;18.10;99.90
46331;DHT22;32049;52.346;4.870;2022-08-21T04:43:38;18.20;99.90
46331;DHT22;32049;52.346;4.870;2022-08-21T04:47:00;18.00;99.90
46331;DHT22;32049;52.346;4.870;2022-08-21T04:49:59;18.00;99.90
46331;DHT22;32049;52.346;4.870;2022-08-21T04:57:30;18.00;99.90
46331;DHT22;32049;52.346;4.870;2022-08-21T05:00:36;18.10;99.90
46331;DHT22;32049;52.346;4.870;2022-08-21T05:04:14;18.00;99.90
46331;DHT22;32049;52.346;4.870;2022-08-21T05:07:43;17.90;99.90
46331;DHT22;32049;52.346;4.870;2022-08-21T05:10:43;17.70;99.90
46331;DHT22;32049;52.346;4.870;2022-08-21T05:14:00;17.80;99.90
46331;DHT22;32049;52.346;4.870;2022-08-21T05:17:16;17.60;99.90
46331;DHT22;32049;52.346;4.870;2022-08-21T05:20:13;17.70;99.90
46331;DHT22;32049;52.346;4.870;2022-08-21T05:23:50;17.60;99.90
46331;DHT22;32049;52.346;4.870;2022-08-21T05:26:59;17.60;99.90
46331;DHT22;32049;52.346;4.870;2022-08-21T05:30:15;17.90;99.90
46331;DHT22;32049;52.346;4.870;2022-08-21T05:33:11;17.50;99.90
46331;DHT22;32049;52.346;4.870;2022-08-21T05:36:18;17.50;99.90
46331;DHT22;32049;52.346;4.870;2022-08-21T05:39:34;17.50;99.90
46331;DHT22;32049;52.346;4.870;2022-08-21T05:42:50;17.60;99.90
46331;DHT22;32049;52.346;4.870;2022-08-21T05:46:20;17.70;99.90
46331;DHT22;32049;52.346;4.870;2022-08-21T05:49:13;18.10;99.90
46331;DHT22;32049;52.346;4.870;2022-08-21T05:52:44;18.00;99.90
46331;DHT22;32049;52.346;4.870;2022-08-21T05:56:22;18.20;99.90
46331;DHT22;32049;52.346;4.870;2022-08-21T05:59:56;18.50;99.90
46331;DHT22;32049;52.346;4.870;2022-08-21T06:03:02;18.10;99.90
46331;DHT22;32049;52.346;4.870;2022-08-21T06:06:34;18.30;99.90
46331;DHT22;32049;52.346;4.870;2022-08-21T06:09:35;18.20;99.90
46331;DHT22;32049;52.346;4.870;2022-08-21T06:12:44;18.30;99.90
46331;DHT22;32049;52.346;4.870;2022-08-21T06:16:00;18.10;99.90
46331;DHT22;32049;52.346;4.870;2022-08-21T06:18:49;18.40;99.90
46331;DHT22;32049;52.346;4.870;2022-08-21T06:21:36;18.30;99.90
46331;DHT22;32049;52.346;4.870;2022-08-21T06:24:24;18.70;99.90
46331;DHT22;32049;52.346;4.870;2022-08-21T06:27:12;18.70;99.90
46331;DHT22;32049;52.346;4.870;2022-08-21T06:29:59;19.00;99.90
46331;DHT22;32049;52.346;4.870;2022-08-21T06:32:47;19.20;99.90
46331;DHT22;32049;52.346;4.870;2022-08-21T06:35:36;19.00;99.90
46331;DHT22;32049;52.346;4.870;2022-08-21T06:38:27;19.10;99.90
46331;DHT22;32049;52.346;4.870;2022-08-21T06:41:15;19.30;99.90
46331;DHT22;32049;52.346;4.870;2022-08-21T06:44:02;19.30;99.90
46331;DHT22;32049;52.346;4.870;2022-08-21T06:46:49;19.00;99.90
46331;DHT22;32049;52.346;4.870;2022-08-21T06:49:37;19.30;99.90
46331;DHT22;32049;52.346;4.870;2022-08-21T06:52:25;19.40;99.90
46331;DHT22;32049;52.346;4.870;2022-08-21T06:55:12;19.00;99.90
46331;DHT22;32049;52.346;4.870;2022-08-21T06:58:15;19.10;99.90
46331;DHT22;32049;52.346;4.870;2022-08-21T07:01:03;19.10;99.90
46331;DHT22;32049;52.346;4.870;2022-08-21T07:08:29;19.60;99.90
46331;DHT22;32049;52.346;4.870;2022-08-21T07:11:55;19.40;99.90
46331;DHT22;32049;52.346;4.870;2022-08-21T07:14:48;19.60;99.90
46331;DHT22;32049;52.346;4.870;2022-08-21T07:17:51;19.40;99.90
46331;DHT22;32049;52.346;4.870;2022-08-21T07:20:55;19.30;99.90
46331;DHT22;32049;52.346;4.870;2022-08-21T07:24:29;19.50;99.90
46331;DHT22;32049;52.346;4.870;2022-08-21T07:27:42;19.50;99.90
46331;DHT22;32049;52.346;4.870;2022-08-21T07:30:52;19.70;99.90
46331;DHT22;32049;52.346;4.870;2022-08-21T07:34:05;20.10;99.90
46331;DHT22;32049;52.346;4.870;2022-08-21T07:37:02;19.90;99.90
46331;DHT22;32049;52.346;4.870;2022-08-21T07:40:41;19.70;99.90
46331;DHT22;32049;52.346;4.870;2022-08-21T07:43:46;19.90;99.90
46331;DHT22;32049;52.346;4.870;2022-08-21T07:47:11;20.00;99.90
46331;DHT22;32049;52.346;4.870;2022-08-21T07:51:20;20.00;99.90
46331;DHT22;32049;52.346;4.870;2022-08-21T07:54:33;20.10;99.90
46331;DHT22;32049;52.346;4.870;2022-08-21T07:57:33;20.50;99.90
46331;DHT22;32049;52.346;4.870;2022-08-21T08:00:33;20.70;99.90
46331;DHT22;32049;52.346;4.870;2022-08-21T08:03:54;20.30;99.90
46331;DHT22;32049;52.346;4.870;2022-08-21T08:06:48;20.00;99.90
46331;DHT22;32049;52.346;4.870;2022-08-21T08:10:23;20.00;99.90
46331;DHT22;32049;52.346;4.870;2022-08-21T08:14:21;20.50;99.90
46331;DHT22;32049;52.346;4.870;2022-08-21T08:17:23;20.80;99.90
46331;DHT22;32049;52.346;4.870;2022-08-21T08:20:19;20.90;99.90
46331;DHT22;32049;52.346;4.870;2022-08-21T08:23:15;20.60;99.90
46331;DHT22;32049;52.346;4.870;2022-08-21T08:26:46;20.50;99.90
46331;DHT22;32049;52.346;4.870;2022-08-21T08:30:12;20.70;99.90
46331;DHT22;32049;52.346;4.870;2022-08-21T08:33:18;20.90;99.90
46331;DHT22;32049;52.346;4.870;2022-08-21T08:36:42;21.60;99.90
46331;DHT22;32049;52.346;4.870;2022-08-21T08:39:45;21.40;99.90
46331;DHT22;32049;52.346;4.870;2022-08-21T08:43:02;21.50;99.90
46331;DHT22;32049;52.346;4.870;2022-08-21T08:46:04;21.20;99.90
46331;DHT22;32049;52.346;4.870;2022-08-21T08:49:58;21.10;99.90
46331;DHT22;32049;52.346;4.870;2022-08-21T08:53:06;21.00;99.90
46331;DHT22;32049;52.346;4.870;2022-08-21T08:56:00;21.10;99.90
46331;DHT22;32049;52.346;4.870;2022-08-21T08:58:49;21.20;99.90
46331;DHT22;32049;52.346;4.870;2022-08-21T09:01:39;21.20;99.90
46331;DHT22;32049;52.346;4.870;2022-08-21T09:04:27;20.90;99.90
46331;DHT22;32049;52.346;4.870;2022-08-21T09:07:47;21.10;99.90
46331;DHT22;32049;52.346;4.870;2022-08-21T09:11:00;21.10;99.90
46331;DHT22;32049;52.346;4.870;2022-08-21T09:14:01;21.50;99.90
46331;DHT22;32049;52.346;4.870;2022-08-21T09:17:02;21.40;99.90
46331;DHT22;32049;52.346;4.870;2022-08-21T09:20:09;21.80;99.90
46331;DHT22;32049;52.346;4.870;2022-08-21T09:23:06;22.10;99.90
46331;DHT22;32049;52.346;4.870;2022-08-21T09:28:53;21.90;99.90
46331;DHT22;32049;52.346;4.870;2022-08-21T09:31:41;21.50;99.90
46331;DHT22;32049;52.346;4.870;2022-08-21T09:34:30;21.50;99.90
46331;DHT22;32049;52.346;4.870;2022-08-21T09:37:18;21.40;99.90
46331;DHT22;32049;52.346;4.870;2022-08-21T09:40:30;22.20;99.90
46331;DHT22;32049;52.346;4.870;2022-08-21T09:43:21;22.20;99.90
46331;DHT22;32049;52.346;4.870;2022-08-21T09:46:19;22.30;99.90
46331;DHT22;32049;52.346;4.870;2022-08-21T09:49:31;22.80;99.90
46331;DHT22;32049;52.346;4.870;2022-08-21T09:52:22;23.20;99.90
46331;DHT22;32049;52.346;4.870;2022-08-21T09:58:31;23.30;99.90
46331;DHT22;32049;52.346;4.870;2022-08-21T10:01:22;22.90;99.90
46331;DHT22;32049;52.346;4.870;2022-08-21T10:04:11;23.00;99.90
46331;DHT22;32049;52.346;4.870;2022-08-21T10:07:12;23.40;99.90
46331;DHT22;32049;52.346;4.870;2022-08-21T10:10:07;23.80;99.90
46331;DHT22;32049;52.346;4.870;2022-08-21T10:13:12;23.40;99.90
46331;DHT22;32049;52.346;4.870;2022-08-21T10:19:32;22.00;99.90
46331;DHT22;32049;52.346;4.870;2022-08-21T10:25:26;22.60;99.90
46331;DHT22;32049;52.346;4.870;2022-08-21T10:28:26;23.10;99.90
46331;DHT22;32049;52.346;4.870;2022-08-21T10:31:42;23.90;99.90
46331;DHT22;32049;52.346;4.870;2022-08-21T10:37:31;23.40;99.90
46331;DHT22;32049;52.346;4.870;2022-08-21T10:43:59;23.90;99.90
46331;DHT22;32049;52.346;4.870;2022-08-21T10:47:57;24.20;99.90
46331;DHT22;32049;52.346;4.870;2022-08-21T10:50:27;24.10;99.90
46331;DHT22;32049;52.346;4.870;2022-08-21T10:53:45;23.60;99.90
46331;DHT22;32049;52.346;4.870;2022-08-21T10:56:39;24.50;99.90
46331;DHT22;32049;52.346;4.870;2022-08-21T10:59:39;23.80;99.90
46331;DHT22;32049;52.346;4.870;2022-08-21T11:02:37;23.10;99.90
46331;DHT22;32049;52.346;4.870;2022-08-21T11:05:35;23.50;99.90
46331;DHT22;32049;52.346;4.870;2022-08-21T11:08:37;23.80;99.90
46331;DHT22;32049;52.346;4.870;2022-08-21T11:11:36;24.10;99.90
46331;DHT22;32049;52.346;4.870;2022-08-21T11:14:49;24.70;99.90
46331;DHT22;32049;52.346;4.870;2022-08-21T11:17:51;24.10;99.90
46331;DHT22;32049;52.346;4.870;2022-08-21T11:20:49;23.20;99.90
46331;DHT22;32049;52.346;4.870;2022-08-21T11:23:48;23.70;99.90
46331;DHT22;32049;52.346;4.870;2022-08-21T11:36:06;23.20;99.90
46331;DHT22;32049;52.346;4.870;2022-08-21T11:45:52;23.00;99.90
46331;DHT22;32049;52.346;4.870;2022-08-21T11:49:03;23.30;99.90
46331;DHT22;32049;52.346;4.870;2022-08-21T11:54:57;23.40;99.90
46331;DHT22;32049;52.346;4.870;2022-08-21T11:57:51;23.00;99.90
46331;DHT22;32049;52.346;4.870;2022-08-21T12:00:46;23.00;99.90
46331;DHT22;32049;52.346;4.870;2022-08-21T12:03:39;23.20;99.90
46331;DHT22;32049;52.346;4.870;2022-08-21T12:06:39;23.30;99.90
46331;DHT22;32049;52.346;4.870;2022-08-21T12:09:34;23.20;99.90
46331;DHT22;32049;52.346;4.870;2022-08-21T12:12:36;23.20;99.90
46331;DHT22;32049;52.346;4.870;2022-08-21T12:15:36;23.00;99.90
46331;DHT22;32049;52.346;4.870;2022-08-21T12:18:29;23.20;99.90
46331;DHT22;32049;52.346;4.870;2022-08-21T12:24:17;23.60;99.90
46331;DHT22;32049;52.346;4.870;2022-08-21T12:30:18;23.50;99.90
46331;DHT22;32049;52.346;4.870;2022-08-21T12:33:37;23.20;99.90
46331;DHT22;32049;52.346;4.870;2022-08-21T12:36:41;23.20;99.90
46331;DHT22;32049;52.346;4.870;2022-08-21T12:39:32;24.40;99.90
46331;DHT22;32049;52.346;4.870;2022-08-21T12:42:32;23.90;99.90
46331;DHT22;32049;52.346;4.870;2022-08-21T12:45:30;24.30;99.90
46331;DHT22;32049;52.346;4.870;2022-08-21T12:51:18;24.10;99.90
46331;DHT22;32049;52.346;4.870;2022-08-21T12:54:09;23.50;99.90
46331;DHT22;32049;52.346;4.870;2022-08-21T12:56:59;23.40;99.90
46331;DHT22;32049;52.346;4.870;2022-08-21T12:59:55;23.80;99.90
46331;DHT22;32049;52.346;4.870;2022-08-21T13:02:49;24.50;99.90
46331;DHT22;32049;52.346;4.870;2022-08-21T13:05:37;24.50;99.90
46331;DHT22;32049;52.346;4.870;2022-08-21T13:08:26;24.70;99.90
46331;DHT22;32049;52.346;4.870;2022-08-21T13:11:18;23.80;99.90
46331;DHT22;32049;52.346;4.870;2022-08-21T13:17:20;24.30;99.90
46331;DHT22;32049;52.346;4.870;2022-08-21T13:23:53;23.60;99.90
46331;DHT22;32049;52.346;4.870;2022-08-21T13:26:41;23.70;99.90
46331;DHT22;32049;52.346;4.870;2022-08-21T13:29:32;24.10;99.90
46331;DHT22;32049;52.346;4.870;2022-08-21T13:32:26;24.10;99.90
46331;DHT22;32049;52.346;4.870;2022-08-21T13:35:19;23.90;99.90
46331;DHT22;32049;52.346;4.870;2022-08-21T13:38:15;23.60;99.90
46331;DHT22;32049;52.346;4.870;2022-08-21T13:41:32;23.60;99.90
46331;DHT22;32049;52.346;4.870;2022-08-21T13:44:39;23.40;99.90
46331;DHT22;32049;52.346;4.870;2022-08-21T13:47:27;23.30;99.90
46331;DHT22;32049;52.346;4.870;2022-08-21T13:50:28;23.10;99.90
46331;DHT22;32049;52.346;4.870;2022-08-21T13:53:23;22.90;99.90
46331;DHT22;32049;52.346;4.870;2022-08-21T13:56:44;23.40;99.90
46331;DHT22;32049;52.346;4.870;2022-08-21T13:59:35;23.30;99.90
46331;DHT22;32049;52.346;4.870;2022-08-21T14:02:24;23.40;99.90
46331;DHT22;32049;52.346;4.870;2022-08-21T14:05:29;23.60;99.90
46331;DHT22;32049;52.346;4.870;2022-08-21T14:08:34;23.30;99.90
46331;DHT22;32049;52.346;4.870;2022-08-21T14:11:22;23.60;99.90
46331;DHT22;32049;52.346;4.870;2022-08-21T14:14:19;23.40;99.90
46331;DHT22;32049;52.346;4.870;2022-08-21T14:17:12;23.30;99.90
46331;DHT22;32049;52.346;4.870;2022-08-21T14:20:32;23.90;99.90
46331;DHT22;32049;52.346;4.870;2022-08-21T14:23:24;23.60;99.90
46331;DHT22;32049;52.346;4.870;2022-08-21T14:26:17;23.40;99.90
46331;DHT22;32049;52.346;4.870;2022-08-21T14:29:09;23.50;99.90
46331;DHT22;32049;52.346;4.870;2022-08-21T14:31:59;23.30;99.90
46331;DHT22;32049;52.346;4.870;2022-08-21T14:34:47;23.20;99.90
46331;DHT22;32049;52.346;4.870;2022-08-21T14:37:45;23.30;99.90
46331;DHT22;32049;52.346;4.870;2022-08-21T14:40:36;23.40;99.90
46331;DHT22;32049;52.346;4.870;2022-08-21T14:43:23;23.30;99.90
46331;DHT22;32049;52.346;4.870;2022-08-21T14:46:20;23.20;99.90
46331;DHT22;32049;52.346;4.870;2022-08-21T14:49:08;23.10;99.90
46331;DHT22;32049;52.346;4.870;2022-08-21T14:51:57;22.90;99.90
46331;DHT22;32049;52.346;4.870;2022-08-21T14:54:45;22.80;99.90
46331;DHT22;32049;52.346;4.870;2022-08-21T14:57:45;22.80;99.90
46331;DHT22;32049;52.346;4.870;2022-08-21T15:00:32;22.60;99.90
46331;DHT22;32049;52.346;4.870;2022-08-21T15:03:22;22.50;99.90
46331;DHT22;32049;52.346;4.870;2022-08-21T15:06:10;22.70;99.90
46331;DHT22;32049;52.346;4.870;2022-08-21T15:08:57;22.60;99.90
46331;DHT22;32049;52.346;4.870;2022-08-21T15:11:45;22.80;99.90
46331;DHT22;32049;52.346;4.870;2022-08-21T15:14:36;22.40;99.90
46331;DHT22;32049;52.346;4.870;2022-08-21T15:17:34;22.80;99.90
46331;DHT22;32049;52.346;4.870;2022-08-21T15:20:21;22.80;99.90
46331;DHT22;32049;52.346;4.870;2022-08-21T15:23:09;23.20;99.90
46331;DHT22;32049;52.346;4.870;2022-08-21T15:26:08;23.20;99.90
46331;DHT22;32049;52.346;4.870;2022-08-21T15:29:08;23.70;99.90
46331;DHT22;32049;52.346;4.870;2022-08-21T15:32:21;23.80;99.90
46331;DHT22;32049;52.346;4.870;2022-08-21T15:35:10;23.40;99.90
46331;DHT22;32049;52.346;4.870;2022-08-21T15:37:57;23.40;99.90
46331;DHT22;32049;52.346;4.870;2022-08-21T15:40:45;22.80;99.90
46331;DHT22;32049;52.346;4.870;2022-08-21T15:43:43;22.60;99.90
46331;DHT22;32049;52.346;4.870;2022-08-21T15:46:32;22.60;99.90
46331;DHT22;32049;52.346;4.870;2022-08-21T15:49:19;22.60;99.90
46331;DHT22;32049;52.346;4.870;2022-08-21T15:52:07;22.50;99.90
46331;DHT22;32049;52.346;4.870;2022-08-21T15:55:05;22.90;99.90
46331;DHT22;32049;52.346;4.870;2022-08-21T15:58:12;23.50;99.90
46331;DHT22;32049;52.346;4.870;2022-08-21T16:01:01;23.40;99.90
46331;DHT22;32049;52.346;4.870;2022-08-21T16:04:23;23.50;99.90
46331;DHT22;32049;52.346;4.870;2022-08-21T16:07:20;23.00;99.90
46331;DHT22;32049;52.346;4.870;2022-08-21T16:10:21;22.60;99.90
46331;DHT22;32049;52.346;4.870;2022-08-21T16:13:28;22.80;99.90
46331;DHT22;32049;52.346;4.870;2022-08-21T16:16:39;23.20;99.90
46331;DHT22;32049;52.346;4.870;2022-08-21T16:19:28;23.30;99.90
46331;DHT22;32049;52.346;4.870;2022-08-21T16:22:16;23.20;99.90
46331;DHT22;32049;52.346;4.870;2022-08-21T16:25:11;22.90;99.90
46331;DHT22;32049;52.346;4.870;2022-08-21T16:28:00;22.90;99.90
46331;DHT22;32049;52.346;4.870;2022-08-21T16:30:49;23.30;99.90
46331;DHT22;32049;52.346;4.870;2022-08-21T16:33:43;23.00;99.90
46331;DHT22;32049;52.346;4.870;2022-08-21T16:36:30;22.80;99.90
46331;DHT22;32049;52.346;4.870;2022-08-21T16:39:21;22.80;99.90
46331;DHT22;32049;52.346;4.870;2022-08-21T16:42:12;23.00;99.90
46331;DHT22;32049;52.346;4.870;2022-08-21T16:45:14;23.00;99.90
46331;DHT22;32049;52.346;4.870;2022-08-21T16:48:02;22.60;99.90
46331;DHT22;32049;52.346;4.870;2022-08-21T16:50:56;22.70;99.90
46331;DHT22;32049;52.346;4.870;2022-08-21T16:53:45;22.70;99.90
46331;DHT22;32049;52.346;4.870;2022-08-21T16:56:33;22.80;99.90
46331;DHT22;32049;52.346;4.870;2022-08-21T16:59:26;22.50;99.90
46331;DHT22;32049;52.346;4.870;2022-08-21T17:02:22;22.60;99.90
46331;DHT22;32049;52.346;4.870;2022-08-21T17:05:12;22.40;99.90
46331;DHT22;32049;52.346;4.870;2022-08-21T17:08:00;22.40;99.90
46331;DHT22;32049;52.346;4.870;2022-08-21T17:10:48;22.40;99.90
46331;DHT22;32049;52.346;4.870;2022-08-21T17:13:37;22.30;99.90
46331;DHT22;32049;52.346;4.870;2022-08-21T17:16:25;22.10;99.90
46331;DHT22;32049;52.346;4.870;2022-08-21T17:19:13;22.10;99.90
46331;DHT22;32049;52.346;4.870;2022-08-21T17:22:02;22.20;99.90
46331;DHT22;32049;52.346;4.870;2022-08-21T17:24:49;22.10;99.90
46331;DHT22;32049;52.346;4.870;2022-08-21T17:27:40;21.90;99.90
46331;DHT22;32049;52.346;4.870;2022-08-21T17:30:31;21.80;99.90
46331;DHT22;32049;52.346;4.870;2022-08-21T17:33:36;21.80;99.90
46331;DHT22;32049;52.346;4.870;2022-08-21T17:36:30;21.60;99.90
46331;DHT22;32049;52.346;4.870;2022-08-21T17:39:22;21.60;99.90
46331;DHT22;32049;52.346;4.870;2022-08-21T17:42:13;21.50;99.90
46331;DHT22;32049;52.346;4.870;2022-08-21T17:45:02;21.50;99.90
46331;DHT22;32049;52.346;4.870;2022-08-21T17:48:04;21.40;99.90
46331;DHT22;32049;52.346;4.870;2022-08-21T17:50:51;21.30;99.90
46331;DHT22;32049;52.346;4.870;2022-08-21T17:53:39;21.40;99.90
46331;DHT22;32049;52.346;4.870;2022-08-21T17:56:30;21.20;99.90
46331;DHT22;32049;52.346;4.870;2022-08-21T17:59:18;21.20;99.90
46331;DHT22;32049;52.346;4.870;2022-08-21T18:02:13;21.10;99.90
46331;DHT22;32049;52.346;4.870;2022-08-21T18:08:09;20.80;99.90
46331;DHT22;32049;52.346;4.870;2022-08-21T18:11:08;20.80;99.90
46331;DHT22;32049;52.346;4.870;2022-08-21T18:14:01;20.90;99.90
46331;DHT22;32049;52.346;4.870;2022-08-21T18:16:54;20.80;99.90
46331;DHT22;32049;52.346;4.870;2022-08-21T18:19:46;20.80;99.90
46331;DHT22;32049;52.346;4.870;2022-08-21T18:22:35;20.90;99.90
46331;DHT22;32049;52.346;4.870;2022-08-21T18:25:30;20.90;99.90
46331;DHT22;32049;52.346;4.870;2022-08-21T18:28:18;20.90;99.90
46331;DHT22;32049;52.346;4.870;2022-08-21T18:31:12;21.00;99.90
46331;DHT22;32049;52.346;4.870;2022-08-21T18:34:05;20.90;99.90
46331;DHT22;32049;52.346;4.870;2022-08-21T18:36:58;20.80;99.90
46331;DHT22;32049;52.346;4.870;2022-08-21T18:39:45;20.90;99.90
46331;DHT22;32049;52.346;4.870;2022-08-21T18:42:38;20.70;99.90
46331;DHT22;32049;52.346;4.870;2022-08-21T18:45:34;20.70;99.90
46331;DHT22;32049;52.346;4.870;2022-08-21T18:48:23;20.80;99.90
46331;DHT22;32049;52.346;4.870;2022-08-21T18:51:36;20.80;99.90
46331;DHT22;32049;52.346;4.870;2022-08-21T18:54:25;20.80;99.90
46331;DHT22;32049;52.346;4.870;2022-08-21T18:58:21;20.60;99.90
46331;DHT22;32049;52.346;4.870;2022-08-21T19:01:39;20.60;99.90
46331;DHT22;32049;52.346;4.870;2022-08-21T19:04:46;20.60;99.90
46331;DHT22;32049;52.346;4.870;2022-08-21T19:07:57;20.50;99.90
46331;DHT22;32049;52.346;4.870;2022-08-21T19:11:24;20.50;99.90
46331;DHT22;32049;52.346;4.870;2022-08-21T19:14:38;20.50;99.90
46331;DHT22;32049;52.346;4.870;2022-08-21T19:17:42;20.70;99.90
46331;DHT22;32049;52.346;4.870;2022-08-21T19:20:33;20.70;99.90
46331;DHT22;32049;52.346;4.870;2022-08-21T19:23:22;20.60;99.90
46331;DHT22;32049;52.346;4.870;2022-08-21T19:26:16;20.60;99.90
46331;DHT22;32049;52.346;4.870;2022-08-21T19:29:15;20.50;99.90
46331;DHT22;32049;52.346;4.870;2022-08-21T19:32:04;20.50;99.90
46331;DHT22;32049;52.346;4.870;2022-08-21T19:35:30;20.50;99.90
46331;DHT22;32049;52.346;4.870;2022-08-21T19:38:25;20.50;99.90
46331;DHT22;32049;52.346;4.870;2022-08-21T19:41:14;20.50;99.90
46331;DHT22;32049;52.346;4.870;2022-08-21T19:44:04;20.50;99.90
46331;DHT22;32049;52.346;4.870;2022-08-21T19:46:54;20.40;99.90
46331;DHT22;32049;52.346;4.870;2022-08-21T19:49:48;20.40;99.90
46331;DHT22;32049;52.346;4.870;2022-08-21T19:52:36;20.30;99.90
46331;DHT22;32049;52.346;4.870;2022-08-21T19:55:35;20.30;99.90
46331;DHT22;32049;52.346;4.870;2022-08-21T19:58:38;20.20;99.90
46331;DHT22;32049;52.346;4.870;2022-08-21T20:01:31;20.30;99.90
46331;DHT22;32049;52.346;4.870;2022-08-21T20:04:19;20.10;99.90
46331;DHT22;32049;52.346;4.870;2022-08-21T20:07:15;20.10;99.90
46331;DHT22;32049;52.346;4.870;2022-08-21T20:10:13;20.20;99.90
46331;DHT22;32049;52.346;4.870;2022-08-21T20:13:08;20.20;99.90
46331;DHT22;32049;52.346;4.870;2022-08-21T20:16:10;20.30;99.90
46331;DHT22;32049;52.346;4.870;2022-08-21T20:18:59;20.10;99.90
46331;DHT22;32049;52.346;4.870;2022-08-21T20:21:49;20.20;99.90
46331;DHT22;32049;52.346;4.870;2022-08-21T20:24:36;20.20;99.90
46331;DHT22;32049;52.346;4.870;2022-08-21T20:27:25;20.10;99.90
46331;DHT22;32049;52.346;4.870;2022-08-21T20:30:14;20.10;99.90
46331;DHT22;32049;52.346;4.870;2022-08-21T20:33:09;20.20;99.90
46331;DHT22;32049;52.346;4.870;2022-08-21T20:35:56;20.20;99.90
46331;DHT22;32049;52.346;4.870;2022-08-21T20:38:53;20.20;99.90
46331;DHT22;32049;52.346;4.870;2022-08-21T20:42:05;20.10;99.90
46331;DHT22;32049;52.346;4.870;2022-08-21T20:45:20;20.10;99.90
46331;DHT22;32049;52.346;4.870;2022-08-21T20:48:12;19.90;99.90
46331;DHT22;32049;52.346;4.870;2022-08-21T20:51:50;20.00;99.90
46331;DHT22;32049;52.346;4.870;2022-08-21T20:57:49;20.10;99.90